Time;durP1;ratioP1;P1;durP2;ratioP2;P2;SDS_P1;SDS_P2;PMS_P1;PMS_P2;Temp;Humidity;BMP_temperature;BMP_pressure;BME280_temperature;BME280_humidity;BME280_pressure;Samples;Min_cycle;Max_cycle;Signal;HPM_P1;HPM_P2
2023/08/04 00:01:51;;;;;;;30.33;6.57;;;26.50;57.80;;;;;;5024189;28;20292;-83
2023/08/04 00:04:18;;;;;;;28.67;6.23;;;26.40;57.80;;;;;;5025105;28;20236;-81
2023/08/04 00:06:45;;;;;;;30.80;6.83;;;26.40;57.80;;;;;;5024253;28;20240;-83
2023/08/04 00:09:12;;;;;;;35.03;6.60;;;26.40;57.80;;;;;;5026354;27;20197;-81
2023/08/04 00:11:39;;;;;;;31.73;6.43;;;26.40;57.80;;;;;;5024707;28;20282;-83
2023/08/04 00:14:06;;;;;;;30.67;6.70;;;26.40;57.80;;;;;;5033437;27;20295;-83
2023/08/04 00:16:33;;;;;;;31.13;6.57;;;26.40;57.80;;;;;;5076596;27;20742;-81
2023/08/04 00:19:01;;;;;;;24.80;6.27;;;26.40;57.80;;;;;;5030460;27;20863;-83
2023/08/04 00:21:28;;;;;;;28.90;6.67;;;26.40;57.80;;;;;;5067161;27;20198;-83
2023/08/04 00:23:58;;;;;;;32.87;7.07;;;26.40;58.40;;;;;;5025366;28;20216;-82
2023/08/04 00:26:25;;;;;;;24.60;5.73;;;26.40;57.80;;;;;;5021253;28;20201;-82
2023/08/04 00:28:52;;;;;;;36.70;7.20;;;26.40;57.80;;;;;;5025031;28;20296;-82
2023/08/04 00:31:19;;;;;;;27.23;6.23;;;26.30;57.70;;;;;;5024027;28;20644;-85
2023/08/04 00:33:46;;;;;;;24.30;6.03;;;26.40;57.80;;;;;;5024063;28;20253;-84
2023/08/04 00:36:14;;;;;;;38.27;7.23;;;26.30;57.80;;;;;;5023246;28;20205;-81
2023/08/04 00:38:41;;;;;;;56.93;9.10;;;26.40;57.80;;;;;;5029617;28;22574;-83
2023/08/04 00:41:08;;;;;;;27.57;6.53;;;26.30;57.80;;;;;;5023623;28;20646;-82
2023/08/04 00:43:35;;;;;;;28.37;6.40;;;26.30;57.80;;;;;;5025131;28;20292;-81
2023/08/04 00:46:02;;;;;;;31.93;6.50;;;26.30;57.80;;;;;;5025479;28;20244;-81
2023/08/04 00:48:29;;;;;;;30.47;6.17;;;26.30;57.80;;;;;;5022772;28;20207;-81
2023/08/04 00:50:57;;;;;;;31.97;6.63;;;26.30;57.80;;;;;;5024074;28;20212;-81
2023/08/04 00:53:25;;;;;;;31.97;6.77;;;26.30;57.80;;;;;;5023888;28;20583;-80
2023/08/04 00:55:52;;;;;;;31.57;6.53;;;26.30;57.80;;;;;;5035554;28;20508;-81
2023/08/04 00:58:20;;;;;;;25.07;5.80;;;26.30;57.90;;;;;;5023132;28;20229;-81
2023/08/04 01:00:47;;;;;;;31.73;6.70;;;26.30;57.90;;;;;;5025356;28;20232;-82
2023/08/04 01:03:14;;;;;;;39.60;7.17;;;26.30;57.90;;;;;;5024388;28;20201;-80
2023/08/04 01:05:48;;;;;;;33.37;7.17;;;26.30;58.50;;;;;;5023451;28;20261;-80
2023/08/04 01:08:22;;;;;;;35.83;7.10;;;26.20;57.90;;;;;;5009539;28;20278;-80
2023/08/04 01:10:56;;;;;;;26.27;6.00;;;26.20;57.80;;;;;;5022957;28;20661;-81
2023/08/04 01:13:25;;;;;;;24.97;6.10;;;26.20;57.80;;;;;;5023286;28;20762;-80
2023/08/04 01:15:53;;;;;;;30.80;6.97;;;26.30;57.90;;;;;;5024824;28;20193;-80
2023/08/04 01:18:21;;;;;;;55.33;9.03;;;26.30;57.90;;;;;;5022160;28;20324;-80
2023/08/04 01:20:48;;;;;;;26.23;6.00;;;26.20;57.80;;;;;;5032223;28;20280;-80
2023/08/04 01:23:17;;;;;;;37.43;7.13;;;26.20;57.90;;;;;;5023605;28;20300;-80
2023/08/04 01:25:44;;;;;;;24.20;5.93;;;26.20;58.50;;;;;;5024484;28;20211;-80
2023/08/04 01:28:15;;;;;;;30.60;6.73;;;26.20;57.90;;;;;;5022613;28;20309;-80
2023/08/04 01:30:44;;;;;;;34.40;7.00;;;26.20;57.90;;;;;;5009210;28;20267;-80
2023/08/04 01:33:12;;;;;;;29.57;6.57;;;26.20;57.90;;;;;;5004869;28;20247;-80
2023/08/04 01:35:39;;;;;;;28.70;6.07;;;26.20;57.90;;;;;;5018387;28;20614;-81
2023/08/04 01:38:06;;;;;;;34.47;6.60;;;26.20;57.90;;;;;;5023953;28;20202;-80
2023/08/04 01:40:34;;;;;;;27.50;6.43;;;26.20;57.90;;;;;;5021958;28;20217;-81
2023/08/04 01:43:01;;;;;;;31.23;6.40;;;26.20;57.90;;;;;;5022084;28;20205;-81
2023/08/04 01:45:28;;;;;;;28.50;6.13;;;26.20;57.90;;;;;;5022746;28;20201;-81
2023/08/04 01:47:55;;;;;;;27.57;6.50;;;26.20;57.90;;;;;;5037244;28;20197;-80
2023/08/04 01:50:22;;;;;;;26.97;6.70;;;26.20;58.00;;;;;;5012251;28;20210;-80
2023/08/04 01:52:49;;;;;;;32.77;7.70;;;26.20;58.00;;;;;;5004801;28;20268;-80
2023/08/04 01:55:15;;;;;;;38.60;6.70;;;26.20;57.90;;;;;;5013613;28;20291;-81
2023/08/04 01:57:44;;;;;;;39.30;7.10;;;26.20;57.90;;;;;;5024042;28;20606;-81
2023/08/04 02:00:13;;;;;;;25.17;5.83;;;26.20;57.90;;;;;;5022595;28;20733;-80
2023/08/04 02:02:40;;;;;;;26.93;5.73;;;26.10;57.90;;;;;;5026342;28;20201;-80
2023/08/04 02:05:08;;;;;;;25.03;5.97;;;26.20;58.00;;;;;;5045862;28;20684;-81
2023/08/04 02:07:35;;;;;;;24.83;5.67;;;26.20;58.00;;;;;;5026844;28;20300;-81
2023/08/04 02:10:02;;;;;;;27.67;6.10;;;26.10;58.60;;;;;;5026405;28;20284;-81
2023/08/04 02:12:29;;;;;;;73.53;10.10;;;26.20;58.00;;;;;;5024958;28;20197;-81
2023/08/04 02:14:57;;;;;;;57.73;8.77;;;26.20;58.00;;;;;;5034465;28;20204;-81
2023/08/04 02:17:24;;;;;;;31.03;6.27;;;26.20;58.00;;;;;;5026714;28;20629;-81
2023/08/04 02:19:51;;;;;;;98.47;12.37;;;26.20;58.00;;;;;;5023275;28;20220;-80
2023/08/04 02:22:18;;;;;;;34.10;6.77;;;26.10;58.00;;;;;;5025176;27;20209;-81
2023/08/04 02:24:44;;;;;;;38.03;7.00;;;26.10;57.90;;;;;;5023966;27;20215;-80
2023/08/04 02:27:11;;;;;;;43.27;7.40;;;26.10;58.00;;;;;;5025200;28;20288;-80
2023/08/04 02:29:38;;;;;;;53.30;8.30;;;26.10;57.90;;;;;;5024614;28;20287;-81
2023/08/04 02:32:07;;;;;;;25.90;5.97;;;26.10;58.00;;;;;;5025802;28;20315;-80
2023/08/04 02:34:34;;;;;;;50.00;8.17;;;26.10;58.00;;;;;;5025533;28;20232;-80
2023/08/04 02:37:01;;;;;;;23.73;5.67;;;26.10;58.00;;;;;;5025559;28;20212;-80
2023/08/04 02:39:28;;;;;;;28.60;6.17;;;26.10;58.50;;;;;;5025460;28;20875;-80
2023/08/04 02:41:57;;;;;;;21.90;5.63;;;26.10;58.00;;;;;;5011952;28;20292;-80
2023/08/04 02:44:24;;;;;;;32.33;6.47;;;26.10;58.00;;;;;;5023525;28;20205;-80
2023/08/04 02:46:51;;;;;;;28.77;6.40;;;26.10;58.00;;;;;;5025457;28;20293;-80
2023/08/04 02:49:19;;;;;;;25.30;6.33;;;26.10;58.00;;;;;;5025807;28;20260;-80
2023/08/04 02:51:46;;;;;;;34.80;6.53;;;26.10;58.00;;;;;;5025021;28;20297;-79
2023/08/04 02:54:14;;;;;;;51.63;7.93;;;26.10;58.00;;;;;;5029079;28;20201;-80
2023/08/04 02:56:41;;;;;;;29.83;6.53;;;26.10;58.00;;;;;;5103345;27;20201;-80
2023/08/04 02:59:08;;;;;;;28.13;5.97;;;26.10;58.00;;;;;;5038435;27;20292;-80
2023/08/04 03:01:35;;;;;;;28.10;6.03;;;26.00;58.00;;;;;;5025562;28;20287;-81
2023/08/04 03:04:02;;;;;;;29.87;6.20;;;26.10;58.00;;;;;;5030165;27;20292;-80
2023/08/04 03:06:30;;;;;;;31.00;6.33;;;26.00;58.00;;;;;;5028998;28;20193;-80
2023/08/04 03:08:57;;;;;;;30.93;6.33;;;26.00;58.00;;;;;;5033361;28;20632;-80
2023/08/04 03:11:25;;;;;;;46.33;7.63;;;26.00;58.00;;;;;;5030416;27;20209;-81
2023/08/04 03:13:52;;;;;;;27.37;5.77;;;26.00;58.00;;;;;;5018190;28;20240;-80
2023/08/04 03:16:19;;;;;;;33.90;6.50;;;26.00;58.00;;;;;;5021467;28;20212;-80
2023/08/04 03:18:46;;;;;;;24.47;5.87;;;26.00;58.00;;;;;;5030107;28;20295;-81
2023/08/04 03:21:13;;;;;;;42.40;7.20;;;26.00;58.00;;;;;;5032501;28;20716;-80
2023/08/04 03:23:41;;;;;;;33.33;6.27;;;26.00;58.00;;;;;;5025397;28;20236;-80
2023/08/04 03:26:08;;;;;;;28.47;5.87;;;26.00;58.00;;;;;;5023596;28;20209;-80
2023/08/04 03:28:35;;;;;;;28.63;5.93;;;26.00;58.00;;;;;;5023602;28;21042;-82
2023/08/04 03:31:03;;;;;;;28.83;6.43;;;26.00;58.00;;;;;;5027307;27;20204;-69
2023/08/04 03:33:30;;;;;;;41.03;7.07;;;26.00;58.00;;;;;;5024818;28;20304;-79
2023/08/04 03:35:57;;;;;;;28.40;6.13;;;26.00;58.00;;;;;;5026367;28;20197;-79
2023/08/04 03:38:24;;;;;;;26.90;5.73;;;26.00;58.00;;;;;;5025031;28;20205;-80
2023/08/04 03:40:53;;;;;;;26.60;5.83;;;26.00;58.60;;;;;;5025038;28;20237;-79
2023/08/04 03:43:19;;;;;;;36.53;6.93;;;25.90;58.00;;;;;;5025590;28;20281;-80
2023/08/04 03:45:46;;;;;;;23.03;5.57;;;26.00;58.10;;;;;;5021783;28;20201;-80
2023/08/04 03:48:13;;;;;;;29.63;6.30;;;25.90;58.00;;;;;;5023762;28;20201;-80
2023/08/04 03:50:40;;;;;;;46.63;7.60;;;26.00;58.00;;;;;;5023744;28;20212;-79
2023/08/04 03:53:07;;;;;;;42.40;7.27;;;26.00;58.00;;;;;;5024057;28;20308;-79
2023/08/04 03:55:34;;;;;;;39.70;6.83;;;26.00;58.00;;;;;;5024208;28;20208;-79
2023/08/04 03:58:03;;;;;;;49.53;7.50;;;26.00;58.00;;;;;;5025263;28;20293;-79
2023/08/04 04:00:31;;;;;;;30.80;5.97;;;26.00;58.00;;;;;;5025601;28;20228;-79
2023/08/04 04:02:57;;;;;;;47.77;7.50;;;25.90;58.00;;;;;;5024088;28;20269;-79
2023/08/04 04:05:24;;;;;;;34.27;6.40;;;26.00;58.00;;;;;;5023992;28;20248;-79
2023/08/04 04:07:51;;;;;;;28.13;5.93;;;26.00;58.00;;;;;;5027973;28;20282;-79
2023/08/04 04:10:18;;;;;;;24.23;5.43;;;26.00;58.10;;;;;;5025227;28;20265;-79
2023/08/04 04:12:45;;;;;;;26.40;5.97;;;26.00;58.00;;;;;;5019825;28;20209;-79
2023/08/04 04:15:14;;;;;;;39.90;6.90;;;26.00;58.00;;;;;;5025799;27;20877;-80
2023/08/04 04:17:41;;;;;;;31.03;6.47;;;25.90;58.60;;;;;;5023287;28;20201;-80
2023/08/04 04:20:08;;;;;;;29.80;5.93;;;26.00;58.00;;;;;;5025797;28;20304;-80
2023/08/04 04:22:35;;;;;;;30.00;5.87;;;26.00;58.10;;;;;;5024960;28;20236;-81
2023/08/04 04:25:03;;;;;;;31.97;6.10;;;26.00;58.00;;;;;;5030164;28;20204;-81
2023/08/04 04:27:30;;;;;;;36.03;6.20;;;26.00;58.00;;;;;;5021474;28;20212;-81
2023/08/04 04:29:57;;;;;;;31.27;5.87;;;26.00;58.00;;;;;;5041910;28;20211;-79
2023/08/04 04:32:25;;;;;;;40.40;7.07;;;26.00;58.00;;;;;;5024541;28;20879;-79
2023/08/04 04:34:52;;;;;;;27.40;5.60;;;26.00;58.00;;;;;;5023951;28;20201;-79
2023/08/04 04:37:19;;;;;;;24.80;5.60;;;26.00;58.00;;;;;;5023120;28;20232;-79
2023/08/04 04:39:47;;;;;;;27.40;5.47;;;26.00;58.00;;;;;;5024764;28;20283;-79
2023/08/04 04:42:16;;;;;;;29.17;5.70;;;26.00;58.00;;;;;;5024016;28;20201;-80
2023/08/04 04:44:43;;;;;;;32.83;6.13;;;26.00;58.00;;;;;;5023577;28;20212;-79
2023/08/04 04:47:10;;;;;;;30.58;6.25;;;26.00;58.00;;;;;;5021748;28;20923;-81
2023/08/04 04:49:38;;;;;;;29.83;5.90;;;25.80;58.40;;;;;;5024409;28;20303;-81
2023/08/04 04:52:06;;;;;;;25.67;5.47;;;25.90;58.40;;;;;;5024536;28;20291;-81
2023/08/04 04:54:33;;;;;;;42.30;6.93;;;25.90;58.30;;;;;;5019176;28;20207;-82
2023/08/04 04:57:00;;;;;;;31.83;5.87;;;26.00;58.30;;;;;;5017719;28;20199;-82
2023/08/04 04:59:27;;;;;;;29.23;5.77;;;26.00;58.20;;;;;;5033454;28;20200;-81
2023/08/04 05:01:54;;;;;;;22.83;5.47;;;26.00;58.10;;;;;;5044837;28;20226;-81
2023/08/04 05:04:21;;;;;;;23.57;5.13;;;26.00;58.00;;;;;;5021391;28;20205;-81
2023/08/04 05:06:49;;;;;;;50.37;7.93;;;26.00;58.10;;;;;;5021650;28;20208;-81
2023/08/04 05:09:17;;;;;;;25.07;5.50;;;26.00;58.00;;;;;;5021534;28;20915;-81
2023/08/04 05:11:43;;;;;;;24.63;5.53;;;26.00;58.00;;;;;;5024855;28;20291;-81
2023/08/04 05:14:10;;;;;;;24.90;5.53;;;26.00;58.00;;;;;;5023799;28;20232;-81
2023/08/04 05:16:37;;;;;;;25.33;5.03;;;26.00;58.00;;;;;;5020668;28;20917;-81
2023/08/04 05:19:04;;;;;;;28.57;6.17;;;26.00;58.00;;;;;;5022320;28;20201;-81
2023/08/04 05:21:31;;;;;;;28.03;5.70;;;26.00;58.00;;;;;;5023974;28;20268;-81
2023/08/04 05:24:00;;;;;;;31.03;5.83;;;26.00;58.00;;;;;;5023902;28;20205;-81
2023/08/04 05:26:27;;;;;;;32.20;6.13;;;26.00;58.10;;;;;;5024475;28;21025;-81
2023/08/04 05:28:54;;;;;;;32.17;5.97;;;26.00;58.10;;;;;;5023019;28;20291;-81
2023/08/04 05:31:20;;;;;;;26.73;5.60;;;25.90;58.10;;;;;;5021957;28;20203;-81
2023/08/04 05:33:47;;;;;;;29.23;5.80;;;26.00;58.70;;;;;;5028739;28;20201;-81
2023/08/04 05:36:16;;;;;;;26.67;5.60;;;26.00;58.10;;;;;;5025303;28;20362;-82
2023/08/04 05:38:44;;;;;;;21.97;5.13;;;25.90;58.10;;;;;;5026522;28;20209;-81
2023/08/04 05:41:12;;;;;;;21.70;4.97;;;25.90;58.10;;;;;;5025948;28;20621;-82
2023/08/04 05:43:39;;;;;;;31.03;6.07;;;25.90;58.10;;;;;;5026917;28;20288;-81
2023/08/04 05:46:06;;;;;;;43.50;7.03;;;25.90;58.10;;;;;;5026716;28;20291;-81
2023/08/04 05:48:34;;;;;;;30.17;6.13;;;25.90;58.10;;;;;;5026017;28;20307;-81
2023/08/04 05:51:01;;;;;;;46.97;7.13;;;25.90;58.10;;;;;;5030743;28;20291;-81
2023/08/04 05:53:28;;;;;;;24.97;5.27;;;25.90;58.10;;;;;;5026073;28;20320;-81
2023/08/04 05:55:55;;;;;;;26.47;5.43;;;25.90;58.10;;;;;;5027052;28;20293;-81
2023/08/04 05:58:24;;;;;;;22.07;5.27;;;25.90;58.10;;;;;;5025608;28;20240;-81
2023/08/04 06:00:51;;;;;;;31.57;6.03;;;25.90;58.10;;;;;;5027889;28;20233;-81
2023/08/04 06:03:18;;;;;;;21.33;5.07;;;25.90;58.10;;;;;;5025984;28;20250;-81
2023/08/04 06:05:45;;;;;;;27.03;5.50;;;25.90;58.20;;;;;;5025006;28;20209;-81
2023/08/04 06:08:12;;;;;;;38.27;6.73;;;25.90;58.20;;;;;;5026882;28;20204;-81
2023/08/04 06:10:39;;;;;;;28.23;5.53;;;25.90;58.20;;;;;;5025455;28;20993;-81
2023/08/04 06:13:06;;;;;;;26.67;5.37;;;25.90;58.20;;;;;;5026111;28;20211;-81
2023/08/04 06:15:35;;;;;;;45.40;7.13;;;25.90;58.20;;;;;;5026520;28;20287;-81
2023/08/04 06:18:02;;;;;;;36.17;6.43;;;25.90;58.20;;;;;;5023603;28;20590;-81
2023/08/04 06:20:29;;;;;;;28.37;5.77;;;25.90;58.30;;;;;;5027240;28;20727;-81
2023/08/04 06:22:56;;;;;;;50.87;7.33;;;25.90;58.30;;;;;;5026727;28;20283;-81
2023/08/04 06:25:23;;;;;;;41.33;7.17;;;25.90;58.20;;;;;;5038333;28;20607;-81
2023/08/04 06:27:53;;;;;;;34.73;6.83;;;25.80;58.20;;;;;;5026040;28;20209;-81
2023/08/04 06:30:20;;;;;;;28.13;5.57;;;25.90;58.30;;;;;;5034149;27;20206;-82
2023/08/04 06:32:49;;;;;;;29.97;5.67;;;25.90;58.30;;;;;;5033798;27;20292;-80
2023/08/04 06:35:16;;;;;;;27.67;5.63;;;25.80;58.80;;;;;;5025733;28;20532;-80
2023/08/04 06:37:43;;;;;;;26.23;5.30;;;25.90;58.30;;;;;;5026725;27;20296;-80
2023/08/04 06:40:11;;;;;;;30.97;5.73;;;25.90;58.30;;;;;;5025982;28;20280;-80
2023/08/04 06:42:38;;;;;;;26.30;5.57;;;25.90;58.30;;;;;;5041838;28;20287;-81
2023/08/04 06:45:07;;;;;;;23.37;5.23;;;25.90;58.40;;;;;;5035558;27;20196;-81
2023/08/04 06:47:34;;;;;;;21.57;4.77;;;25.90;58.40;;;;;;5046857;28;20568;-81
2023/08/04 06:50:04;;;;;;;48.07;7.50;;;25.90;59.00;;;;;;5044451;28;20275;-82
2023/08/04 06:52:31;;;;;;;35.90;6.30;;;25.90;58.40;;;;;;5024137;28;20240;-82
2023/08/04 06:54:58;;;;;;;24.47;5.13;;;25.90;58.40;;;;;;5013554;28;20233;-82
2023/08/04 06:57:25;;;;;;;44.20;7.23;;;25.90;58.50;;;;;;5016938;28;20225;-81
2023/08/04 06:59:52;;;;;;;25.80;5.50;;;25.90;58.40;;;;;;5025773;28;20316;-81
2023/08/04 07:02:19;;;;;;;21.40;5.10;;;25.90;58.40;;;;;;5025272;28;20260;-81
2023/08/04 07:04:46;;;;;;;30.47;6.07;;;25.90;58.50;;;;;;5026050;28;20197;-81
2023/08/04 07:07:14;;;;;;;27.17;5.67;;;25.90;58.50;;;;;;5023835;28;20196;-81
2023/08/04 07:09:41;;;;;;;23.00;5.43;;;25.90;58.50;;;;;;5026211;28;20254;-81
2023/08/04 07:12:09;;;;;;;22.37;5.20;;;25.90;58.50;;;;;;5026086;28;20293;-81
2023/08/04 07:14:36;;;;;;;24.83;5.37;;;25.90;58.50;;;;;;5024473;28;20288;-81
2023/08/04 07:17:03;;;;;;;26.80;5.30;;;26.00;58.60;;;;;;5038212;28;20191;-81
2023/08/04 07:19:30;;;;;;;29.43;5.63;;;26.00;58.60;;;;;;5025572;28;20303;-81
2023/08/04 07:21:57;;;;;;;26.80;5.33;;;26.00;58.60;;;;;;5024647;28;20307;-81
2023/08/04 07:24:26;;;;;;;24.60;5.63;;;26.00;58.60;;;;;;5025132;28;20233;-81
2023/08/04 07:26:53;;;;;;;24.03;5.33;;;26.00;58.60;;;;;;5023517;28;20662;-81
2023/08/04 07:29:20;;;;;;;27.30;5.50;;;26.00;58.50;;;;;;5026518;28;20284;-82
2023/08/04 07:31:47;;;;;;;32.27;5.97;;;26.00;58.60;;;;;;5023760;28;20227;-82
2023/08/04 07:34:14;;;;;;;31.90;5.73;;;26.00;58.50;;;;;;5025428;28;20291;-82
2023/08/04 07:36:41;;;;;;;18.47;4.83;;;26.00;58.60;;;;;;5010508;28;20289;-82
2023/08/04 07:39:08;;;;;;;30.50;5.47;;;26.00;59.20;;;;;;5025804;28;20274;-81
2023/08/04 07:41:36;;;;;;;26.13;5.43;;;26.10;58.60;;;;;;5025055;28;20216;-81
2023/08/04 07:44:03;;;;;;;22.63;4.93;;;26.00;58.60;;;;;;5026016;28;20653;-82
2023/08/04 07:46:31;;;;;;;28.10;5.43;;;26.10;58.60;;;;;;5025600;28;20200;-82
2023/08/04 07:48:58;;;;;;;22.33;5.20;;;26.10;58.60;;;;;;5027636;28;20216;-81
2023/08/04 07:51:25;;;;;;;53.63;7.73;;;26.10;58.70;;;;;;5042241;28;20248;-82
2023/08/04 07:53:52;;;;;;;28.00;5.87;;;26.10;58.60;;;;;;5025085;28;20205;-81
2023/08/04 07:56:19;;;;;;;23.90;5.23;;;26.20;58.70;;;;;;5024804;28;20574;-81
2023/08/04 07:58:48;;;;;;;29.37;5.67;;;26.10;58.60;;;;;;5023679;28;20205;-81
2023/08/04 08:01:15;;;;;;;41.10;6.93;;;26.20;58.70;;;;;;5024864;28;20668;-81
2023/08/04 08:03:42;;;;;;;28.30;5.83;;;26.20;58.70;;;;;;5024481;28;20216;-81
2023/08/04 08:06:09;;;;;;;24.87;5.57;;;26.20;58.70;;;;;;5024467;28;20200;-83
2023/08/04 08:08:36;;;;;;;41.57;6.67;;;26.20;58.70;;;;;;5024107;28;20249;-82
2023/08/04 08:11:08;;;;;;;28.27;5.80;;;26.20;59.30;;;;;;5024707;28;20292;-81
2023/08/04 08:13:35;;;;;;;26.17;5.20;;;26.20;58.70;;;;;;5067798;27;20241;-81
2023/08/04 08:16:08;;;;;;;25.23;5.37;;;26.30;58.70;;;;;;5029028;28;20279;-81
2023/08/04 08:18:35;;;;;;;56.00;8.03;;;26.20;58.70;;;;;;5023316;28;20205;-81
2023/08/04 08:21:05;;;;;;;36.20;6.53;;;26.30;58.70;;;;;;5010904;28;20248;-80
2023/08/04 08:23:32;;;;;;;25.50;5.63;;;26.30;58.70;;;;;;5025252;28;20237;-80
2023/08/04 08:25:59;;;;;;;36.27;6.37;;;26.30;58.70;;;;;;5022786;28;20206;-80
2023/08/04 08:28:26;;;;;;;61.67;8.43;;;26.30;58.70;;;;;;5028647;28;20208;-81
2023/08/04 08:30:53;;;;;;;23.40;5.13;;;26.30;58.70;;;;;;5012831;28;20692;-83
2023/08/04 08:33:22;;;;;;;42.87;7.00;;;26.30;58.70;;;;;;5019295;28;20300;-83
2023/08/04 08:35:49;;;;;;;19.77;5.00;;;26.40;58.80;;;;;;5019490;28;20288;-84
2023/08/04 08:38:16;;;;;;;21.80;4.90;;;26.40;58.80;;;;;;5026394;28;20304;-80
2023/08/04 08:40:43;;;;;;;34.80;6.40;;;26.40;58.70;;;;;;5031528;28;20284;-84
2023/08/04 08:43:10;;;;;;;35.30;5.90;;;26.40;58.80;;;;;;5022901;28;20227;-83
2023/08/04 08:45:39;;;;;;;28.80;5.50;;;26.40;58.70;;;;;;5024532;28;20295;-85
2023/08/04 08:48:06;;;;;;;36.90;6.47;;;26.50;59.40;;;;;;5021125;28;20205;-86
2023/08/04 08:50:35;;;;;;;22.33;4.93;;;26.50;58.50;;;;;;5023981;28;20621;-87
2023/08/04 08:53:08;;;;;;;28.47;5.47;;;26.50;58.10;;;;;;5024099;28;20296;-86
2023/08/04 08:55:36;;;;;;;27.70;5.70;;;26.50;57.80;;;;;;5023269;28;20201;-87
2023/08/04 08:58:04;;;;;;;31.10;6.00;;;26.50;57.90;;;;;;5088635;28;20203;-87
2023/08/04 09:00:31;;;;;;;23.07;5.10;;;26.40;57.60;;;;;;5024322;28;20237;-86
2023/08/04 09:02:59;;;;;;;18.80;4.53;;;26.50;57.60;;;;;;5024896;28;20767;-87
2023/08/04 09:05:26;;;;;;;58.00;8.33;;;26.50;57.60;;;;;;5024109;28;20357;-86
2023/08/04 09:07:54;;;;;;;27.33;5.50;;;26.50;57.60;;;;;;5025237;28;20284;-87
2023/08/04 09:10:21;;;;;;;21.13;5.07;;;26.40;57.60;;;;;;5026842;28;20336;-83
2023/08/04 09:12:49;;;;;;;44.07;7.07;;;26.40;57.40;;;;;;5027666;28;20763;-87
2023/08/04 09:15:16;;;;;;;26.43;5.60;;;26.30;57.50;;;;;;5028826;28;20679;-88
2023/08/04 09:17:44;;;;;;;39.37;6.57;;;26.30;57.30;;;;;;5027131;27;20709;-87
2023/08/04 09:20:29;;;;;;;30.07;5.90;;;26.30;57.30;;;;;;5027611;27;20209;-87
2023/08/04 09:22:58;;;;;;;29.17;6.13;;;26.30;57.10;;;;;;5016379;28;20263;-85
2023/08/04 09:25:25;;;;;;;34.83;6.37;;;26.30;57.00;;;;;;5015715;28;20251;-86
2023/08/04 09:27:53;;;;;;;33.93;6.07;;;26.30;57.10;;;;;;5025759;28;20648;-86
2023/08/04 09:30:20;;;;;;;20.70;5.10;;;26.20;57.10;;;;;;5027739;28;20207;-87
2023/08/04 09:32:49;;;;;;;27.17;5.60;;;26.20;57.20;;;;;;5023727;28;20204;-88
2023/08/04 09:35:17;;;;;;;31.03;6.07;;;26.10;57.10;;;;;;5034214;28;20201;-84
2023/08/04 09:37:44;;;;;;;33.10;6.23;;;26.10;57.20;;;;;;5025976;28;20202;-85
2023/08/04 09:40:17;;;;;;;55.60;8.43;;;26.10;57.30;;;;;;5016333;28;20308;-72
2023/08/04 09:42:44;;;;;;;48.07;7.33;;;26.10;57.40;;;;;;5021871;28;20249;-71
2023/08/04 09:45:14;;;;;;;26.43;5.30;;;26.00;57.50;;;;;;5022051;28;20573;-69
2023/08/04 09:47:46;;;;;;;21.83;5.33;;;26.10;57.60;;;;;;5024774;28;20228;-69
2023/08/04 09:50:13;;;;;;;24.60;5.40;;;26.00;57.60;;;;;;5024551;28;20912;-86
2023/08/04 09:52:40;;;;;;;34.23;6.33;;;26.00;57.70;;;;;;5022790;28;20351;-85
2023/08/04 09:55:11;;;;;;;58.80;8.30;;;26.00;57.70;;;;;;5024622;28;20283;-82
2023/08/04 09:57:41;;;;;;;30.83;5.60;;;26.00;57.80;;;;;;5023757;28;20207;-81
2023/08/04 10:00:11;;;;;;;31.00;6.07;;;26.00;57.90;;;;;;5017423;28;20243;-81
2023/08/04 10:02:38;;;;;;;39.73;7.00;;;26.00;57.90;;;;;;5022866;28;20220;-79
2023/08/04 10:05:06;;;;;;;31.73;6.10;;;26.00;57.90;;;;;;5028214;27;20212;-78
2023/08/04 10:07:35;;;;;;;29.53;6.13;;;26.10;58.10;;;;;;5012219;28;20626;-75
2023/08/04 10:10:04;;;;;;;33.77;6.60;;;26.00;58.10;;;;;;5019346;28;20293;-81
2023/08/04 10:12:32;;;;;;;37.93;6.90;;;26.10;58.10;;;;;;5024994;28;20982;-80
2023/08/04 10:15:00;;;;;;;44.63;7.90;;;26.10;58.10;;;;;;5015610;28;20211;-73
2023/08/04 10:17:28;;;;;;;33.17;7.20;;;26.10;58.10;;;;;;5026652;27;20254;-70
2023/08/04 10:20:03;;;;;;;40.37;7.80;;;26.20;58.30;;;;;;5027479;28;20626;-77
2023/08/04 10:22:32;;;;;;;33.50;7.17;;;26.20;58.50;;;;;;5024932;28;20232;-79
2023/08/04 10:24:59;;;;;;;28.87;6.57;;;26.20;58.50;;;;;;5026655;28;20284;-81
2023/08/04 10:27:25;;;;;;;35.33;6.80;;;26.20;58.50;;;;;;5025816;28;20280;-74
2023/08/04 10:30:12;;;;;;;33.00;6.43;;;26.20;58.50;;;;;;5026201;28;20228;-74
2023/08/04 10:32:40;;;;;;;35.60;6.70;;;26.30;58.70;;;;;;5026889;28;20211;-82
2023/08/04 10:35:16;;;;;;;27.50;5.97;;;26.30;58.50;;;;;;5021857;28;20288;-81
2023/08/04 10:37:48;;;;;;;33.23;6.57;;;26.30;58.50;;;;;;5023598;27;20376;-79
2023/08/04 10:40:27;;;;;;;32.90;6.43;;;26.40;58.50;;;;;;5042417;27;20197;-84
2023/08/04 10:43:04;;;;;;;21.17;5.30;;;26.40;58.50;;;;;;5030118;28;20255;-83
2023/08/04 10:45:52;;;;;;;25.73;6.10;;;26.50;58.60;;;;;;5025587;28;20636;-83
2023/08/04 10:48:20;;;;;;;26.07;5.87;;;26.50;58.60;;;;;;5029069;27;20228;-83
2023/08/04 10:50:47;;;;;;;30.63;6.30;;;26.60;58.50;;;;;;5025286;28;20215;-83
2023/08/04 10:53:15;;;;;;;28.10;6.13;;;26.60;58.50;;;;;;5060809;27;20289;-79
2023/08/04 10:55:54;;;;;;;31.00;6.20;;;26.70;58.50;;;;;;5025615;28;20602;-79
2023/08/04 10:58:21;;;;;;;39.80;6.83;;;26.70;58.40;;;;;;5032242;28;20204;-79
2023/08/04 11:00:48;;;;;;;32.23;6.20;;;26.80;58.50;;;;;;5007407;28;20214;-79
2023/08/04 11:03:26;;;;;;;31.07;6.20;;;26.80;58.20;;;;;;5022299;28;20225;-81
2023/08/04 11:05:54;;;;;;;36.50;6.73;;;26.90;57.40;;;;;;5019389;28;20371;-80
2023/08/04 11:08:22;;;;;;;24.77;5.53;;;26.90;57.80;;;;;;5025661;28;20288;-81
2023/08/04 11:10:51;;;;;;;27.77;5.90;;;27.00;57.80;;;;;;5026322;28;20249;-80
2023/08/04 11:13:20;;;;;;;28.10;5.70;;;27.00;57.70;;;;;;5010632;28;20321;-81
2023/08/04 11:15:47;;;;;;;28.63;6.07;;;27.00;57.70;;;;;;5022835;28;20232;-81
2023/08/04 11:18:16;;;;;;;34.50;6.77;;;27.00;57.60;;;;;;5014241;28;20201;-81
2023/08/04 11:20:44;;;;;;;34.13;6.53;;;27.10;57.60;;;;;;5018499;28;20204;-80
2023/08/04 11:23:11;;;;;;;33.43;6.33;;;27.10;57.60;;;;;;5019905;28;20268;-80
2023/08/04 11:25:40;;;;;;;31.37;6.13;;;27.10;57.70;;;;;;5024477;28;20307;-80
2023/08/04 11:28:07;;;;;;;33.70;6.63;;;27.10;58.00;;;;;;5024961;28;20247;-80
2023/08/04 11:30:36;;;;;;;31.87;6.20;;;27.10;58.00;;;;;;5023526;28;20236;-81
2023/08/04 11:33:03;;;;;;;28.83;5.97;;;27.20;58.20;;;;;;5007998;28;20208;-80
2023/08/04 11:35:32;;;;;;;22.97;5.30;;;27.30;58.30;;;;;;5024870;28;20258;-80
2023/08/04 11:38:02;;;;;;;45.77;7.27;;;27.30;58.30;;;;;;5024956;28;20209;-80
2023/08/04 11:40:29;;;;;;;30.23;5.83;;;27.40;58.20;;;;;;5026036;28;20208;-80
2023/08/04 11:42:59;;;;;;;29.93;6.13;;;27.50;58.20;;;;;;5023267;28;20267;-81
2023/08/04 11:45:26;;;;;;;32.87;6.70;;;27.60;58.00;;;;;;5024812;28;20233;-82
2023/08/04 11:47:56;;;;;;;27.33;6.10;;;27.70;57.90;;;;;;5025216;28;20197;-83
2023/08/04 11:50:23;;;;;;;48.27;8.10;;;27.80;57.70;;;;;;5021542;28;20193;-81
2023/08/04 11:52:50;;;;;;;34.37;6.13;;;27.80;57.50;;;;;;5018425;28;20241;-81
2023/08/04 11:55:19;;;;;;;32.70;6.47;;;27.90;57.60;;;;;;5024129;28;20304;-80
2023/08/04 11:57:50;;;;;;;29.37;6.00;;;27.90;57.60;;;;;;5024994;28;20236;-80
2023/08/04 12:00:17;;;;;;;33.07;6.33;;;28.00;57.50;;;;;;5024710;28;20292;-81
2023/08/04 12:02:57;;;;;;;23.10;5.67;;;28.00;57.40;;;;;;5025471;28;20236;-80
2023/08/04 12:05:30;;;;;;;27.33;6.07;;;28.10;57.20;;;;;;5025339;28;20197;-80
2023/08/04 12:07:57;;;;;;;31.43;6.17;;;28.10;57.10;;;;;;5022990;28;20197;-81
2023/08/04 12:10:26;;;;;;;21.33;5.23;;;28.20;57.20;;;;;;5024765;28;20319;-80
2023/08/04 12:12:53;;;;;;;27.23;5.60;;;28.20;57.20;;;;;;5025239;28;20219;-81
2023/08/04 12:15:20;;;;;;;25.40;5.43;;;28.20;57.20;;;;;;5025309;28;20661;-81
2023/08/04 12:17:47;;;;;;;23.10;5.73;;;28.30;57.10;;;;;;5023946;28;20637;-81
2023/08/04 12:20:15;;;;;;;32.97;6.70;;;28.30;57.00;;;;;;5022899;28;20726;-81
2023/08/04 12:22:44;;;;;;;40.13;7.07;;;28.30;56.90;;;;;;5024877;28;20700;-82
2023/08/04 12:25:12;;;;;;;31.40;6.07;;;28.30;56.80;;;;;;5024822;28;20236;-83
2023/08/04 12:27:40;;;;;;;34.57;6.27;;;28.30;56.70;;;;;;5024204;28;20736;-80
2023/08/04 12:30:08;;;;;;;47.47;7.67;;;28.20;56.50;;;;;;5023897;28;20822;-80
2023/08/04 12:32:35;;;;;;;30.70;6.13;;;28.20;56.60;;;;;;5024538;28;20284;-83
2023/08/04 12:35:02;;;;;;;45.90;7.73;;;28.30;56.70;;;;;;5024661;28;20262;-80
2023/08/04 12:37:29;;;;;;;24.87;5.83;;;28.20;56.80;;;;;;5023008;28;20560;-80
2023/08/04 12:39:56;;;;;;;42.77;7.60;;;28.20;56.90;;;;;;5024420;28;20292;-82